sensor_id;sensor_type;location;lat;lon;timestamp;pressure;altitude;pressure_sealevel;temperature;humidity
56182;BME280;51963;46.052;14.544;2023-05-16T00:00:50;97553.19;;;14.02;100.00
56182;BME280;51963;46.052;14.544;2023-05-16T00:03:20;97568.91;;;13.91;100.00
56182;BME280;51963;46.052;14.544;2023-05-16T00:05:46;97537.44;;;13.64;100.00
56182;BME280;51963;46.052;14.544;2023-05-16T00:08:12;97554.78;;;13.79;100.00
56182;BME280;51963;46.052;14.544;2023-05-16T00:10:40;97552.16;;;13.91;100.00
56182;BME280;51963;46.052;14.544;2023-05-16T00:13:08;97552.13;;;13.79;100.00
56182;BME280;51963;46.052;14.544;2023-05-16T00:15:34;97545.44;;;13.76;100.00
56182;BME280;51963;46.052;14.544;2023-05-16T00:18:00;97544.16;;;13.67;100.00
56182;BME280;51963;46.052;14.544;2023-05-16T00:20:26;97540.91;;;13.65;100.00
56182;BME280;51963;46.052;14.544;2023-05-16T00:22:53;97550.94;;;13.63;100.00
56182;BME280;51963;46.052;14.544;2023-05-16T00:25:19;97551.03;;;13.56;100.00
56182;BME280;51963;46.052;14.544;2023-05-16T00:27:45;97536.47;;;13.47;100.00
56182;BME280;51963;46.052;14.544;2023-05-16T00:30:11;97551.16;;;13.49;100.00
56182;BME280;51963;46.052;14.544;2023-05-16T00:32:37;97547.81;;;13.35;100.00
56182;BME280;51963;46.052;14.544;2023-05-16T00:35:03;97530.97;;;13.30;100.00
56182;BME280;51963;46.052;14.544;2023-05-16T00:37:31;97553.72;;;13.38;100.00
56182;BME280;51963;46.052;14.544;2023-05-16T00:39:57;97554.47;;;13.45;100.00
56182;BME280;51963;46.052;14.544;2023-05-16T00:42:22;97545.19;;;13.35;100.00
56182;BME280;51963;46.052;14.544;2023-05-16T00:44:49;97552.78;;;13.32;100.00
56182;BME280;51963;46.052;14.544;2023-05-16T00:47:17;97557.88;;;13.33;100.00
56182;BME280;51963;46.052;14.544;2023-05-16T00:49:43;97551.91;;;13.19;100.00
56182;BME280;51963;46.052;14.544;2023-05-16T00:52:09;97553.31;;;13.22;100.00
56182;BME280;51963;46.052;14.544;2023-05-16T00:54:35;97544.63;;;13.15;100.00
56182;BME280;51963;46.052;14.544;2023-05-16T00:57:02;97539.63;;;13.06;100.00
56182;BME280;51963;46.052;14.544;2023-05-16T00:59:28;97527.25;;;13.00;100.00
56182;BME280;51963;46.052;14.544;2023-05-16T01:01:54;97527.25;;;13.00;100.00
56182;BME280;51963;46.052;14.544;2023-05-16T01:04:20;97527.72;;;12.97;100.00
56182;BME280;51963;46.052;14.544;2023-05-16T01:06:46;97533.06;;;13.09;100.00
56182;BME280;51963;46.052;14.544;2023-05-16T01:09:15;97534.09;;;13.08;100.00
56182;BME280;51963;46.052;14.544;2023-05-16T01:14:37;97515.22;;;12.86;100.00
56182;BME280;51963;46.052;14.544;2023-05-16T01:17:16;97529.06;;;12.88;100.00
56182;BME280;51963;46.052;14.544;2023-05-16T01:22:42;97521.16;;;12.81;100.00
56182;BME280;51963;46.052;14.544;2023-05-16T01:27:54;97496.94;;;12.77;100.00
56182;BME280;51963;46.052;14.544;2023-05-16T01:30:21;97503.78;;;12.85;100.00
56182;BME280;51963;46.052;14.544;2023-05-16T01:32:47;97499.75;;;12.83;100.00
56182;BME280;51963;46.052;14.544;2023-05-16T01:35:15;97511.13;;;12.83;100.00
56182;BME280;51963;46.052;14.544;2023-05-16T01:37:47;97508.78;;;12.75;100.00
56182;BME280;51963;46.052;14.544;2023-05-16T01:43:13;97491.81;;;12.64;100.00
56182;BME280;51963;46.052;14.544;2023-05-16T01:45:54;97496.97;;;12.59;100.00
56182;BME280;51963;46.052;14.544;2023-05-16T01:48:27;97501.97;;;12.49;100.00
56182;BME280;51963;46.052;14.544;2023-05-16T01:50:56;97513.16;;;12.51;100.00
56182;BME280;51963;46.052;14.544;2023-05-16T01:53:27;97501.59;;;12.45;100.00
56182;BME280;51963;46.052;14.544;2023-05-16T01:56:01;97496.97;;;12.40;100.00
56182;BME280;51963;46.052;14.544;2023-05-16T01:58:29;97495.34;;;12.39;100.00
56182;BME280;51963;46.052;14.544;2023-05-16T02:01:02;97503.88;;;12.41;100.00
56182;BME280;51963;46.052;14.544;2023-05-16T02:03:32;97523.09;;;12.37;100.00
56182;BME280;51963;46.052;14.544;2023-05-16T02:05:58;97528.47;;;12.30;100.00
56182;BME280;51963;46.052;14.544;2023-05-16T02:08:25;97513.28;;;12.18;100.00
56182;BME280;51963;46.052;14.544;2023-05-16T02:10:52;97500.41;;;12.22;100.00
56182;BME280;51963;46.052;14.544;2023-05-16T02:13:17;97485.69;;;12.26;100.00
56182;BME280;51963;46.052;14.544;2023-05-16T02:15:44;97470.59;;;12.45;100.00
56182;BME280;51963;46.052;14.544;2023-05-16T02:18:10;97460.16;;;12.51;100.00
56182;BME280;51963;46.052;14.544;2023-05-16T02:20:36;97467.66;;;12.35;100.00
56182;BME280;51963;46.052;14.544;2023-05-16T02:23:02;97484.00;;;12.32;100.00
56182;BME280;51963;46.052;14.544;2023-05-16T02:25:28;97483.56;;;12.35;100.00
56182;BME280;51963;46.052;14.544;2023-05-16T02:27:56;97481.34;;;12.51;100.00
56182;BME280;51963;46.052;14.544;2023-05-16T02:30:22;97473.25;;;12.64;100.00
56182;BME280;51963;46.052;14.544;2023-05-16T02:32:48;97451.59;;;12.49;100.00
56182;BME280;51963;46.052;14.544;2023-05-16T02:35:14;97439.25;;;12.42;100.00
56182;BME280;51963;46.052;14.544;2023-05-16T02:37:40;97449.03;;;12.42;100.00
56182;BME280;51963;46.052;14.544;2023-05-16T02:40:07;97459.31;;;12.13;100.00
56182;BME280;51963;46.052;14.544;2023-05-16T02:42:35;97461.78;;;12.14;100.00
56182;BME280;51963;46.052;14.544;2023-05-16T02:45:01;97438.81;;;12.08;100.00
56182;BME280;51963;46.052;14.544;2023-05-16T02:47:31;97420.97;;;11.97;100.00
56182;BME280;51963;46.052;14.544;2023-05-16T02:49:58;97400.41;;;11.92;100.00
56182;BME280;51963;46.052;14.544;2023-05-16T02:52:29;97412.97;;;12.03;100.00
56182;BME280;51963;46.052;14.544;2023-05-16T02:54:58;97408.94;;;12.01;100.00
56182;BME280;51963;46.052;14.544;2023-05-16T02:57:23;97416.25;;;11.99;100.00
56182;BME280;51963;46.052;14.544;2023-05-16T02:59:49;97420.69;;;12.05;100.00
56182;BME280;51963;46.052;14.544;2023-05-16T03:02:15;97410.41;;;12.15;100.00
56182;BME280;51963;46.052;14.544;2023-05-16T03:04:41;97412.81;;;12.17;100.00
56182;BME280;51963;46.052;14.544;2023-05-16T03:07:06;97419.38;;;12.14;100.00
56182;BME280;51963;46.052;14.544;2023-05-16T03:09:32;97432.03;;;12.12;100.00
56182;BME280;51963;46.052;14.544;2023-05-16T03:11:58;97424.53;;;12.09;100.00
56182;BME280;51963;46.052;14.544;2023-05-16T03:14:24;97413.41;;;12.00;100.00
56182;BME280;51963;46.052;14.544;2023-05-16T03:16:50;97410.84;;;12.12;100.00
56182;BME280;51963;46.052;14.544;2023-05-16T03:19:16;97413.09;;;12.09;100.00
56182;BME280;51963;46.052;14.544;2023-05-16T03:21:47;97421.28;;;12.07;100.00
56182;BME280;51963;46.052;14.544;2023-05-16T03:24:15;97426.75;;;12.12;100.00
56182;BME280;51963;46.052;14.544;2023-05-16T03:26:42;97435.34;;;12.08;100.00
56182;BME280;51963;46.052;14.544;2023-05-16T03:29:08;97434.09;;;12.10;100.00
56182;BME280;51963;46.052;14.544;2023-05-16T03:31:34;97438.25;;;11.99;100.00
56182;BME280;51963;46.052;14.544;2023-05-16T03:34:02;97438.22;;;12.06;100.00
56182;BME280;51963;46.052;14.544;2023-05-16T03:36:28;97436.81;;;12.03;100.00
56182;BME280;51963;46.052;14.544;2023-05-16T03:38:54;97450.28;;;12.02;100.00
56182;BME280;51963;46.052;14.544;2023-05-16T03:41:20;97450.94;;;12.16;100.00
56182;BME280;51963;46.052;14.544;2023-05-16T03:43:46;97455.28;;;12.10;100.00
56182;BME280;51963;46.052;14.544;2023-05-16T03:46:12;97456.31;;;12.09;100.00
56182;BME280;51963;46.052;14.544;2023-05-16T03:48:38;97430.59;;;11.91;100.00
56182;BME280;51963;46.052;14.544;2023-05-16T03:51:04;97448.03;;;11.99;100.00
56182;BME280;51963;46.052;14.544;2023-05-16T03:53:30;97451.63;;;12.11;100.00
56182;BME280;51963;46.052;14.544;2023-05-16T03:55:56;97454.84;;;12.13;100.00
56182;BME280;51963;46.052;14.544;2023-05-16T03:58:22;97459.84;;;12.03;100.00
56182;BME280;51963;46.052;14.544;2023-05-16T04:00:48;97456.19;;;11.97;100.00
56182;BME280;51963;46.052;14.544;2023-05-16T04:03:13;97467.22;;;12.01;100.00
56182;BME280;51963;46.052;14.544;2023-05-16T04:05:41;97460.38;;;11.86;100.00
56182;BME280;51963;46.052;14.544;2023-05-16T04:08:07;97466.09;;;12.27;100.00
56182;BME280;51963;46.052;14.544;2023-05-16T04:10:32;97438.97;;;12.13;100.00
56182;BME280;51963;46.052;14.544;2023-05-16T04:12:58;97439.25;;;12.24;100.00
56182;BME280;51963;46.052;14.544;2023-05-16T04:15:24;97449.13;;;12.35;100.00
56182;BME280;51963;46.052;14.544;2023-05-16T04:17:49;97446.47;;;12.35;100.00
56182;BME280;51963;46.052;14.544;2023-05-16T04:20:17;97447.78;;;12.26;100.00
56182;BME280;51963;46.052;14.544;2023-05-16T04:22:43;97451.16;;;12.14;100.00
56182;BME280;51963;46.052;14.544;2023-05-16T04:25:09;97449.56;;;12.13;100.00
56182;BME280;51963;46.052;14.544;2023-05-16T04:27:36;97455.72;;;12.07;100.00
56182;BME280;51963;46.052;14.544;2023-05-16T04:30:03;97452.06;;;12.08;100.00
56182;BME280;51963;46.052;14.544;2023-05-16T04:32:29;97461.03;;;12.26;100.00
56182;BME280;51963;46.052;14.544;2023-05-16T04:34:57;97457.34;;;12.27;100.00
56182;BME280;51963;46.052;14.544;2023-05-16T04:37:22;97463.25;;;12.29;100.00
56182;BME280;51963;46.052;14.544;2023-05-16T04:39:48;97454.25;;;12.30;100.00
56182;BME280;51963;46.052;14.544;2023-05-16T04:42:18;97451.47;;;12.25;100.00
56182;BME280;51963;46.052;14.544;2023-05-16T04:44:44;97445.13;;;12.26;100.00
56182;BME280;51963;46.052;14.544;2023-05-16T04:47:12;97427.31;;;12.14;100.00
56182;BME280;51963;46.052;14.544;2023-05-16T04:49:38;97440.34;;;12.35;100.00
56182;BME280;51963;46.052;14.544;2023-05-16T04:52:06;97459.03;;;12.40;100.00
56182;BME280;51963;46.052;14.544;2023-05-16T04:54:33;97458.84;;;12.23;100.00
56182;BME280;51963;46.052;14.544;2023-05-16T04:56:58;97461.78;;;12.14;100.00
56182;BME280;51963;46.052;14.544;2023-05-16T04:59:24;97464.41;;;12.14;100.00
56182;BME280;51963;46.052;14.544;2023-05-16T05:01:50;97476.50;;;12.29;100.00
56182;BME280;51963;46.052;14.544;2023-05-16T05:04:16;97487.81;;;12.17;100.00
56182;BME280;51963;46.052;14.544;2023-05-16T05:06:42;97480.16;;;12.09;100.00
56182;BME280;51963;46.052;14.544;2023-05-16T05:09:08;97489.50;;;12.12;100.00
56182;BME280;51963;46.052;14.544;2023-05-16T05:11:34;97483.41;;;12.11;100.00
56182;BME280;51963;46.052;14.544;2023-05-16T05:14:05;97479.72;;;12.12;100.00
56182;BME280;51963;46.052;14.544;2023-05-16T05:16:31;97473.69;;;12.24;100.00
56182;BME280;51963;46.052;14.544;2023-05-16T05:19:01;97465.31;;;12.27;100.00
56182;BME280;51963;46.052;14.544;2023-05-16T05:21:27;97459.63;;;12.23;100.00
56182;BME280;51963;46.052;14.544;2023-05-16T05:23:55;97446.38;;;12.23;100.00
56182;BME280;51963;46.052;14.544;2023-05-16T05:26:20;97426.44;;;12.39;100.00
56182;BME280;51963;46.052;14.544;2023-05-16T05:28:47;97414.72;;;12.28;100.00
56182;BME280;51963;46.052;14.544;2023-05-16T05:31:13;97412.94;;;12.41;100.00
56182;BME280;51963;46.052;14.544;2023-05-16T05:33:39;97398.28;;;12.57;100.00
56182;BME280;51963;46.052;14.544;2023-05-16T05:36:08;97401.72;;;12.88;100.00
56182;BME280;51963;46.052;14.544;2023-05-16T05:38:34;97422.09;;;13.18;100.00
56182;BME280;51963;46.052;14.544;2023-05-16T05:41:00;97428.31;;;13.12;100.00
56182;BME280;51963;46.052;14.544;2023-05-16T05:43:25;97413.47;;;13.34;100.00
56182;BME280;51963;46.052;14.544;2023-05-16T05:45:54;97407.94;;;13.36;100.00
56182;BME280;51963;46.052;14.544;2023-05-16T05:48:19;97406.84;;;13.56;100.00
56182;BME280;51963;46.052;14.544;2023-05-16T05:50:45;97397.25;;;13.43;100.00
56182;BME280;51963;46.052;14.544;2023-05-16T05:53:11;97397.25;;;13.43;100.00
56182;BME280;51963;46.052;14.544;2023-05-16T05:55:36;97380.34;;;13.25;100.00
56182;BME280;51963;46.052;14.544;2023-05-16T05:58:02;97399.72;;;13.14;100.00
56182;BME280;51963;46.052;14.544;2023-05-16T06:00:28;97397.63;;;13.16;100.00
56182;BME280;51963;46.052;14.544;2023-05-16T06:02:54;97393.00;;;13.11;100.00
56182;BME280;51963;46.052;14.544;2023-05-16T06:05:20;97382.84;;;12.96;100.00
56182;BME280;51963;46.052;14.544;2023-05-16T06:07:46;97386.16;;;12.91;100.00
56182;BME280;51963;46.052;14.544;2023-05-16T06:10:12;97386.34;;;12.78;100.00
56182;BME280;51963;46.052;14.544;2023-05-16T06:12:37;97381.91;;;13.02;100.00
56182;BME280;51963;46.052;14.544;2023-05-16T06:15:04;97404.06;;;12.96;100.00
56182;BME280;51963;46.052;14.544;2023-05-16T06:17:33;97410.25;;;12.90;100.00
56182;BME280;51963;46.052;14.544;2023-05-16T06:19:59;97404.25;;;12.95;100.00
56182;BME280;51963;46.052;14.544;2023-05-16T06:22:25;97401.28;;;12.91;100.00
56182;BME280;51963;46.052;14.544;2023-05-16T06:24:50;97391.31;;;12.86;100.00
56182;BME280;51963;46.052;14.544;2023-05-16T06:27:16;97415.69;;;12.95;100.00
56182;BME280;51963;46.052;14.544;2023-05-16T06:29:41;97415.44;;;12.85;100.00
56182;BME280;51963;46.052;14.544;2023-05-16T06:32:09;97409.28;;;12.72;100.00
56182;BME280;51963;46.052;14.544;2023-05-16T06:34:35;97405.41;;;12.56;100.00
56182;BME280;51963;46.052;14.544;2023-05-16T06:37:02;97420.06;;;12.59;100.00
56182;BME280;51963;46.052;14.544;2023-05-16T06:39:28;97426.09;;;12.66;100.00
56182;BME280;51963;46.052;14.544;2023-05-16T06:41:53;97425.19;;;12.72;100.00
56182;BME280;51963;46.052;14.544;2023-05-16T06:44:22;97419.97;;;12.96;100.00
56182;BME280;51963;46.052;14.544;2023-05-16T06:46:50;97418.53;;;12.82;100.00
56182;BME280;51963;46.052;14.544;2023-05-16T06:49:15;97412.38;;;12.69;100.00
56182;BME280;51963;46.052;14.544;2023-05-16T06:51:41;97418.25;;;13.02;100.00
56182;BME280;51963;46.052;14.544;2023-05-16T06:54:07;97431.09;;;13.17;100.00
56182;BME280;51963;46.052;14.544;2023-05-16T06:56:32;97429.69;;;13.02;100.00
56182;BME280;51963;46.052;14.544;2023-05-16T06:58:58;97431.94;;;12.87;100.00
56182;BME280;51963;46.052;14.544;2023-05-16T07:01:26;97433.28;;;12.77;100.00
56182;BME280;51963;46.052;14.544;2023-05-16T07:03:52;97429.69;;;12.72;100.00
56182;BME280;51963;46.052;14.544;2023-05-16T07:06:18;97435.69;;;12.79;100.00
56182;BME280;51963;46.052;14.544;2023-05-16T07:08:43;97431.84;;;12.63;100.00
56182;BME280;51963;46.052;14.544;2023-05-16T07:11:09;97442.00;;;12.66;100.00
56182;BME280;51963;46.052;14.544;2023-05-16T07:13:36;97425.72;;;12.62;100.00
56182;BME280;51963;46.052;14.544;2023-05-16T07:16:04;97428.13;;;12.83;100.00
56182;BME280;51963;46.052;14.544;2023-05-16T07:18:32;97443.00;;;12.84;100.00
56182;BME280;51963;46.052;14.544;2023-05-16T07:20:57;97440.38;;;12.96;100.00
56182;BME280;51963;46.052;14.544;2023-05-16T07:23:23;97426.75;;;12.92;100.00
56182;BME280;51963;46.052;14.544;2023-05-16T07:25:49;97403.34;;;13.01;100.00
56182;BME280;51963;46.052;14.544;2023-05-16T07:28:15;97409.63;;;13.06;100.00
56182;BME280;51963;46.052;14.544;2023-05-16T07:30:41;97394.94;;;12.92;100.00
56182;BME280;51963;46.052;14.544;2023-05-16T07:33:07;97424.72;;;13.06;100.00
56182;BME280;51963;46.052;14.544;2023-05-16T07:35:32;97427.81;;;12.91;100.00
56182;BME280;51963;46.052;14.544;2023-05-16T07:37:58;97434.13;;;12.90;100.00
56182;BME280;51963;46.052;14.544;2023-05-16T07:40:24;97435.53;;;12.93;100.00
56182;BME280;51963;46.052;14.544;2023-05-16T07:42:55;97442.09;;;12.90;100.00
56182;BME280;51963;46.052;14.544;2023-05-16T07:45:21;97437.25;;;12.87;100.00
56182;BME280;51963;46.052;14.544;2023-05-16T07:47:46;97421.25;;;13.05;100.00
56182;BME280;51963;46.052;14.544;2023-05-16T07:50:14;97410.78;;;13.11;100.00
56182;BME280;51963;46.052;14.544;2023-05-16T07:52:40;97403.19;;;13.26;100.00
56182;BME280;51963;46.052;14.544;2023-05-16T07:55:06;97409.16;;;13.10;100.00
56182;BME280;51963;46.052;14.544;2023-05-16T07:57:32;97406.13;;;13.06;100.00
56182;BME280;51963;46.052;14.544;2023-05-16T08:00:06;97401.53;;;13.13;100.00
56182;BME280;51963;46.052;14.544;2023-05-16T08:02:37;97381.13;;;13.14;100.00
56182;BME280;51963;46.052;14.544;2023-05-16T08:05:07;97385.66;;;13.25;100.00
56182;BME280;51963;46.052;14.544;2023-05-16T08:07:33;97371.78;;;13.23;100.00
56182;BME280;51963;46.052;14.544;2023-05-16T08:10:02;97381.53;;;13.41;100.00
56182;BME280;51963;46.052;14.544;2023-05-16T08:12:28;97371.84;;;13.47;100.00
56182;BME280;51963;46.052;14.544;2023-05-16T08:14:55;97363.97;;;13.76;100.00
56182;BME280;51963;46.052;14.544;2023-05-16T08:17:21;97360.66;;;14.21;100.00
56182;BME280;51963;46.052;14.544;2023-05-16T08:19:47;97354.28;;;14.51;100.00
56182;BME280;51963;46.052;14.544;2023-05-16T08:22:15;97364.63;;;14.36;100.00
56182;BME280;51963;46.052;14.544;2023-05-16T08:24:40;97390.94;;;14.20;100.00
56182;BME280;51963;46.052;14.544;2023-05-16T08:27:06;97405.00;;;14.33;100.00
56182;BME280;51963;46.052;14.544;2023-05-16T08:29:40;97414.31;;;14.47;100.00
56182;BME280;51963;46.052;14.544;2023-05-16T08:32:07;97402.06;;;14.46;100.00
56182;BME280;51963;46.052;14.544;2023-05-16T08:34:33;97407.75;;;14.38;100.00
56182;BME280;51963;46.052;14.544;2023-05-16T08:36:59;97399.88;;;14.02;100.00
56182;BME280;51963;46.052;14.544;2023-05-16T08:39:26;97402.13;;;14.22;100.00
56182;BME280;51963;46.052;14.544;2023-05-16T08:41:54;97402.75;;;14.01;100.00
56182;BME280;51963;46.052;14.544;2023-05-16T08:44:21;97402.19;;;14.11;100.00
56182;BME280;51963;46.052;14.544;2023-05-16T08:46:51;97392.06;;;13.84;100.00
56182;BME280;51963;46.052;14.544;2023-05-16T08:49:18;97401.03;;;14.06;100.00
56182;BME280;51963;46.052;14.544;2023-05-16T08:51:48;97404.53;;;13.71;100.00
56182;BME280;51963;46.052;14.544;2023-05-16T08:54:16;97392.38;;;13.63;100.00
56182;BME280;51963;46.052;14.544;2023-05-16T08:56:43;97385.13;;;13.59;100.00
56182;BME280;51963;46.052;14.544;2023-05-16T08:59:13;97383.50;;;13.70;100.00
56182;BME280;51963;46.052;14.544;2023-05-16T09:01:39;97358.88;;;13.86;100.00
56182;BME280;51963;46.052;14.544;2023-05-16T09:04:07;97368.81;;;13.91;100.00
56182;BME280;51963;46.052;14.544;2023-05-16T09:06:34;97366.84;;;13.86;100.00
56182;BME280;51963;46.052;14.544;2023-05-16T09:09:00;97364.66;;;13.83;100.00
56182;BME280;51963;46.052;14.544;2023-05-16T09:11:27;97364.22;;;13.74;100.00
56182;BME280;51963;46.052;14.544;2023-05-16T09:13:55;97369.72;;;13.97;100.00
56182;BME280;51963;46.052;14.544;2023-05-16T09:16:21;97363.50;;;13.79;100.00
56182;BME280;51963;46.052;14.544;2023-05-16T09:18:57;97364.34;;;13.68;100.00
56182;BME280;51963;46.052;14.544;2023-05-16T09:21:32;97347.09;;;13.94;100.00
56182;BME280;51963;46.052;14.544;2023-05-16T09:24:05;97328.75;;;13.81;100.00
56182;BME280;51963;46.052;14.544;2023-05-16T09:26:32;97335.56;;;13.76;100.00
56182;BME280;51963;46.052;14.544;2023-05-16T09:28:58;97328.97;;;13.79;100.00
56182;BME280;51963;46.052;14.544;2023-05-16T09:31:26;97326.09;;;13.69;100.00
56182;BME280;51963;46.052;14.544;2023-05-16T09:33:55;97325.16;;;13.87;100.00
56182;BME280;51963;46.052;14.544;2023-05-16T09:36:21;97315.34;;;14.16;100.00
56182;BME280;51963;46.052;14.544;2023-05-16T09:38:46;97305.88;;;14.20;100.00
56182;BME280;51963;46.052;14.544;2023-05-16T09:41:12;97327.97;;;14.09;100.00
56182;BME280;51963;46.052;14.544;2023-05-16T09:43:39;97296.00;;;14.04;100.00
56182;BME280;51963;46.052;14.544;2023-05-16T09:46:06;97290.47;;;13.93;100.00
56182;BME280;51963;46.052;14.544;2023-05-16T09:48:32;97298.81;;;13.85;100.00
56182;BME280;51963;46.052;14.544;2023-05-16T09:50:57;97303.50;;;14.07;100.00
56182;BME280;51963;46.052;14.544;2023-05-16T09:53:29;97284.38;;;13.93;100.00
56182;BME280;51963;46.052;14.544;2023-05-16T09:56:26;97295.63;;;14.12;100.00
56182;BME280;51963;46.052;14.544;2023-05-16T09:58:51;97301.66;;;14.07;100.00
56182;BME280;51963;46.052;14.544;2023-05-16T10:01:18;97310.84;;;13.76;100.00
56182;BME280;51963;46.052;14.544;2023-05-16T10:03:43;97316.41;;;13.62;100.00
56182;BME280;51963;46.052;14.544;2023-05-16T10:06:12;97314.59;;;13.51;100.00
56182;BME280;51963;46.052;14.544;2023-05-16T10:08:41;97310.66;;;13.42;100.00
56182;BME280;51963;46.052;14.544;2023-05-16T10:11:06;97312.13;;;13.38;100.00
56182;BME280;51963;46.052;14.544;2023-05-16T10:13:33;97297.97;;;13.44;100.00
56182;BME280;51963;46.052;14.544;2023-05-16T10:16:06;97281.78;;;13.57;100.00
56182;BME280;51963;46.052;14.544;2023-05-16T10:18:39;97275.47;;;13.87;100.00
56182;BME280;51963;46.052;14.544;2023-05-16T10:21:07;97280.00;;;13.87;100.00
56182;BME280;51963;46.052;14.544;2023-05-16T10:23:39;97289.06;;;14.03;100.00
56182;BME280;51963;46.052;14.544;2023-05-16T10:26:06;97292.00;;;13.89;100.00
56182;BME280;51963;46.052;14.544;2023-05-16T10:28:34;97288.84;;;13.92;100.00
56182;BME280;51963;46.052;14.544;2023-05-16T10:31:00;97299.59;;;13.98;100.00
56182;BME280;51963;46.052;14.544;2023-05-16T10:33:27;97300.63;;;13.97;100.00
56182;BME280;51963;46.052;14.544;2023-05-16T10:35:54;97272.41;;;13.67;100.00
56182;BME280;51963;46.052;14.544;2023-05-16T10:38:20;97289.53;;;14.00;100.00
56182;BME280;51963;46.052;14.544;2023-05-16T10:40:48;97287.72;;;13.88;100.00
56182;BME280;51963;46.052;14.544;2023-05-16T10:43:28;97274.16;;;14.02;100.00
56182;BME280;51963;46.052;14.544;2023-05-16T10:46:02;97269.84;;;13.84;100.00
56182;BME280;51963;46.052;14.544;2023-05-16T10:48:36;97281.19;;;14.08;100.00
56182;BME280;51963;46.052;14.544;2023-05-16T10:51:33;97286.09;;;13.87;100.00
56182;BME280;51963;46.052;14.544;2023-05-16T10:54:04;97281.91;;;13.15;100.00
56182;BME280;51963;46.052;14.544;2023-05-16T10:56:32;97295.03;;;12.86;100.00
56182;BME280;51963;46.052;14.544;2023-05-16T10:58:59;97299.13;;;12.58;100.00
56182;BME280;51963;46.052;14.544;2023-05-16T11:01:34;97268.38;;;12.26;100.00
56182;BME280;51963;46.052;14.544;2023-05-16T11:04:05;97278.78;;;12.40;100.00
56182;BME280;51963;46.052;14.544;2023-05-16T11:11:57;97225.28;;;12.97;100.00
56182;BME280;51963;46.052;14.544;2023-05-16T11:17:20;97253.16;;;13.59;100.00
56182;BME280;51963;46.052;14.544;2023-05-16T11:19:56;97259.75;;;13.57;100.00
56182;BME280;51963;46.052;14.544;2023-05-16T11:22:28;97240.72;;;13.24;100.00
56182;BME280;51963;46.052;14.544;2023-05-16T11:25:04;97263.56;;;13.25;100.00
56182;BME280;51963;46.052;14.544;2023-05-16T11:27:43;97267.25;;;13.00;100.00
56182;BME280;51963;46.052;14.544;2023-05-16T11:30:13;97270.25;;;13.16;100.00
56182;BME280;51963;46.052;14.544;2023-05-16T11:32:42;97272.56;;;13.24;100.00
56182;BME280;51963;46.052;14.544;2023-05-16T11:35:15;97233.22;;;12.85;100.00
56182;BME280;51963;46.052;14.544;2023-05-16T11:37:42;97276.81;;;12.89;100.00
56182;BME280;51963;46.052;14.544;2023-05-16T11:40:10;97275.03;;;12.59;100.00
56182;BME280;51963;46.052;14.544;2023-05-16T11:42:39;97275.03;;;12.59;100.00
56182;BME280;51963;46.052;14.544;2023-05-16T11:45:32;97283.16;;;12.88;100.00
56182;BME280;51963;46.052;14.544;2023-05-16T11:48:01;97278.50;;;12.60;100.00
56182;BME280;51963;46.052;14.544;2023-05-16T11:50:28;97274.66;;;12.44;100.00
56182;BME280;51963;46.052;14.544;2023-05-16T11:52:55;97269.34;;;12.32;100.00
56182;BME280;51963;46.052;14.544;2023-05-16T11:55:24;97270.63;;;12.11;100.00
56182;BME280;51963;46.052;14.544;2023-05-16T11:57:51;97239.66;;;12.11;100.00
56182;BME280;51963;46.052;14.544;2023-05-16T12:00:19;97241.78;;;12.33;100.00
56182;BME280;51963;46.052;14.544;2023-05-16T12:02:48;97254.59;;;12.48;100.00
56182;BME280;51963;46.052;14.544;2023-05-16T12:05:20;97267.78;;;12.55;100.00
56182;BME280;51963;46.052;14.544;2023-05-16T12:07:50;97275.16;;;12.65;100.00
56182;BME280;51963;46.052;14.544;2023-05-16T12:10:19;97274.75;;;12.37;100.00
56182;BME280;51963;46.052;14.544;2023-05-16T12:12:47;97272.19;;;12.30;100.00
56182;BME280;51963;46.052;14.544;2023-05-16T12:15:13;97277.34;;;12.13;100.00
56182;BME280;51963;46.052;14.544;2023-05-16T12:17:40;97284.41;;;12.31;100.00
56182;BME280;51963;46.052;14.544;2023-05-16T12:20:08;97280.28;;;12.36;100.00
56182;BME280;51963;46.052;14.544;2023-05-16T12:22:44;97288.41;;;12.53;100.00
56182;BME280;51963;46.052;14.544;2023-05-16T12:25:30;97296.50;;;12.58;100.00
56182;BME280;51963;46.052;14.544;2023-05-16T12:28:03;97297.72;;;12.43;100.00
56182;BME280;51963;46.052;14.544;2023-05-16T12:30:30;97294.81;;;12.33;100.00
56182;BME280;51963;46.052;14.544;2023-05-16T12:33:18;97308.63;;;12.35;100.00
56182;BME280;51963;46.052;14.544;2023-05-16T12:35:44;97291.56;;;12.31;100.00
56182;BME280;51963;46.052;14.544;2023-05-16T12:38:12;97277.94;;;12.70;100.00
56182;BME280;51963;46.052;14.544;2023-05-16T12:40:40;97267.94;;;13.08;100.00
56182;BME280;51963;46.052;14.544;2023-05-16T12:43:19;97265.63;;;13.47;100.00
56182;BME280;51963;46.052;14.544;2023-05-16T12:45:53;97262.75;;;13.89;100.00
56182;BME280;51963;46.052;14.544;2023-05-16T12:48:19;97269.66;;;14.02;100.00
56182;BME280;51963;46.052;14.544;2023-05-16T12:50:45;97244.31;;;13.83;100.00
56182;BME280;51963;46.052;14.544;2023-05-16T12:53:12;97260.19;;;13.94;100.00
56182;BME280;51963;46.052;14.544;2023-05-16T12:55:38;97276.63;;;13.91;100.00
56182;BME280;51963;46.052;14.544;2023-05-16T12:58:04;97279.03;;;13.52;100.00
56182;BME280;51963;46.052;14.544;2023-05-16T13:00:30;97269.34;;;13.46;100.00
56182;BME280;51963;46.052;14.544;2023-05-16T13:02:56;97262.28;;;13.40;100.00